Historique des mesures à Cassis (13260), France
Quotidien Résumé Janvier 18, 2017 Unités:  US    Métrique   Métrique/US
« Précédent (Jour)
Suivant (Jour) »
Quotidien Hebdomadaire Mensuel Annuel Période au choix
  Maximum: Minimum: Moyenne:
Température: 32 °F 37.9 °F 42.4 °F
Point de rosée: 32 °F 16 °F 19.8 °F
Humidité: Humidity % 30 % 37 %
Vitesse du vent: WindSpeedKMH mph 0.0 mph 1.6 mph
Rafales: WindSpeedGustKMH mph - -
Vent:- - SE
Pression: 0 in 29.9 in -
Précipitations: 0 in    
Historical Graphs
 
 
Mesures pour : Janvier 18, 2017
Heure Temperature Point de rosée Pression Vent Vitesse du vent Rafales Humidité Pluie (par heure) Conditions
32 °F 32 °F 0 in Calm     Humidity % 0 in SoftwareType W/m2
00:11 39.6 °F 18.1 °F 29.9 in West 4.3 mph 11.1 mph 42 % 0 in open2300-1.11 W/m2
01:10 39.6 °F 17.8 °F 29.9 in Calm   2.9 mph 41 % 0 in open2300-1.11 W/m2
02:11 39.4 °F 17.1 °F 29.9 in North 3.2 mph 5.0 mph 40 % 0 in open2300-1.11 W/m2
03:10 39.6 °F 16.5 °F 29.9 in NE 5.0 mph 9.0 mph 39 % 0 in open2300-1.11 W/m2
04:11 39.4 °F 16.3 °F 29.9 in Calm   3.2 mph 39 % 0 in open2300-1.11 W/m2
05:10 37.9 °F 16.9 °F 29.9 in Calm   2.6 mph 42 % 0 in open2300-1.11 W/m2
06:11 38.5 °F 16.9 °F 29.9 in Calm     41 % 0 in open2300-1.11 W/m2
07:10 38.3 °F 16.2 °F 30 in Calm     40 % 0 in open2300-1.11 W/m2
08:11 38.8 °F 16 °F 30 in Calm     39 % 0 in open2300-1.11 W/m2
09:10 40.3 °F 16.5 °F 30 in North 2.9 mph 2.9 mph 38 % 0 in open2300-1.11 W/m2
10:11 42.1 °F 17.4 °F 30 in Calm     37 % 0 in open2300-1.11 W/m2
11:10 45.1 °F 18.9 °F 30 in NNE 6.1 mph 6.1 mph 35 % 0 in open2300-1.11 W/m2
12:11 48 °F 20.8 °F 30 in Calm     34 % 0 in open2300-1.11 W/m2
13:10 50.2 °F 21.4 °F 30 in Calm   4.7 mph 32 % 0 in open2300-1.11 W/m2
14:11 50.9 °F 20.7 °F 30 in Calm     30 % 0 in open2300-1.11 W/m2
15:10 50.4 °F 22.1 °F 30 in NW 2.6 mph 15.8 mph 33 % 0 in open2300-1.11 W/m2
16:11 48 °F 23.5 °F 30 in NW 15.8 mph 16.6 mph 38 % 0 in open2300-1.11 W/m2
17:10 45 °F 23.2 °F 30 in Calm     42 % 0 in open2300-1.11 W/m2
18:11 43.5 °F 21.9 °F 30 in Calm   5.5 mph 42 % 0 in open2300-1.11 W/m2
19:10 43.2 °F 21 °F 30 in Calm     41 % 0 in open2300-1.11 W/m2
20:11 43.2 °F 20.5 °F 30.1 in Calm     40 % 0 in open2300-1.11 W/m2
21:10 43.7 °F 20.3 °F 30.1 in Calm     39 % 0 in open2300-1.11 W/m2
22:11 42.6 °F 19.9 °F 30.1 in Calm     40 % 0 in open2300-1.11 W/m2
23:10 43.3 °F 19.9 °F 30.1 in Calm     39 % 0 in open2300-1.11 W/m2
Observations météo à CASSIS
WU-History script by Weather Underground - 1 mb